createdAt,value
2023-02-13T00:00:26.083Z,100.00
2023-02-13T00:02:57.022Z,100.00
2023-02-13T00:05:26.749Z,100.00
2023-02-13T00:07:55.428Z,100.00
2023-02-13T00:10:26.820Z,100.00
2023-02-13T00:12:56.513Z,100.00
2023-02-13T00:15:25.933Z,100.00
2023-02-13T00:17:54.978Z,100.00
2023-02-13T00:20:25.242Z,100.00
2023-02-13T00:22:56.224Z,100.00
2023-02-13T00:25:25.849Z,100.00
2023-02-13T00:27:54.788Z,100.00
2023-02-13T00:30:27.892Z,100.00
2023-02-13T00:32:56.407Z,100.00
2023-02-13T00:35:26.976Z,100.00
2023-02-13T00:37:58.394Z,100.00
2023-02-13T00:40:29.463Z,100.00
2023-02-13T00:42:57.875Z,100.00
2023-02-13T00:45:28.116Z,100.00
2023-02-13T00:47:58.885Z,100.00
2023-02-13T00:50:56.362Z,100.00
2023-02-13T00:53:26.868Z,100.00
2023-02-13T00:55:56.014Z,100.00
2023-02-13T00:58:27.136Z,100.00
2023-02-13T01:00:57.072Z,100.00
2023-02-13T01:03:29.626Z,100.00
2023-02-13T01:05:58.555Z,100.00
2023-02-13T01:08:28.482Z,100.00
2023-02-13T01:10:58.502Z,100.00
2023-02-13T01:13:27.330Z,100.00
2023-02-13T01:15:57.915Z,100.00
2023-02-13T01:18:30.655Z,100.00
2023-02-13T01:21:06.813Z,100.00
2023-02-13T01:23:37.976Z,100.00
2023-02-13T01:26:08.132Z,100.00
2023-02-13T01:28:37.803Z,100.00
2023-02-13T01:31:05.867Z,100.00
2023-02-13T01:33:38.868Z,100.00
2023-02-13T01:36:12.150Z,100.00
2023-02-13T01:38:42.188Z,100.00
2023-02-13T01:41:11.798Z,100.00
2023-02-13T01:43:52.165Z,100.00
2023-02-13T01:46:35.611Z,100.00
2023-02-13T01:49:10.122Z,100.00
2023-02-13T01:51:37.955Z,100.00
2023-02-13T01:54:09.743Z,100.00
2023-02-13T01:56:42.665Z,100.00
2023-02-13T01:59:20.063Z,100.00
2023-02-13T02:01:57.599Z,100.00
2023-02-13T02:04:36.438Z,100.00
2023-02-13T02:07:24.842Z,100.00
2023-02-13T02:09:58.476Z,100.00
2023-02-13T02:12:36.037Z,100.00
2023-02-13T02:15:07.825Z,100.00
2023-02-13T02:17:35.509Z,100.00
2023-02-13T02:20:21.400Z,100.00
2023-02-13T02:23:26.768Z,100.00
2023-02-13T02:26:04.271Z,100.00
2023-02-13T02:29:05.883Z,100.00
2023-02-13T02:32:06.085Z,100.00
2023-02-13T02:34:58.522Z,100.00
2023-02-13T02:37:58.561Z,100.00
2023-02-13T02:40:36.464Z,100.00
2023-02-13T02:43:22.270Z,100.00
2023-02-13T02:46:10.524Z,100.00
2023-02-13T02:49:28.300Z,100.00
2023-02-13T02:52:16.795Z,100.00
2023-02-13T02:55:07.504Z,100.00
2023-02-13T02:58:26.383Z,100.00
2023-02-13T03:01:18.673Z,100.00
2023-02-13T03:04:07.155Z,100.00
2023-02-13T03:06:37.854Z,100.00
2023-02-13T03:09:32.035Z,100.00
2023-02-13T03:12:19.862Z,100.00
2023-02-13T03:14:53.132Z,100.00
2023-02-13T03:17:41.147Z,100.00
2023-02-13T03:20:47.456Z,100.00
2023-02-13T03:23:52.764Z,100.00
2023-02-13T03:26:35.317Z,100.00
2023-02-13T03:29:35.814Z,100.00
2023-02-13T03:32:42.023Z,100.00
2023-02-13T03:35:53.311Z,100.00
2023-02-13T03:38:56.300Z,100.00
2023-02-13T03:41:54.060Z,100.00
2023-02-13T03:44:38.616Z,100.00
2023-02-13T03:47:14.154Z,100.00
2023-02-13T03:50:04.461Z,100.00
2023-02-13T03:53:05.677Z,100.00
2023-02-13T03:56:03.458Z,100.00
2023-02-13T03:58:58.073Z,100.00
2023-02-13T04:01:34.116Z,100.00
2023-02-13T04:04:17.059Z,100.00
2023-02-13T04:07:41.044Z,100.00
2023-02-13T04:10:15.352Z,100.00
2023-02-13T04:13:08.307Z,100.00
2023-02-13T04:16:01.558Z,100.00
2023-02-13T04:18:34.177Z,100.00
2023-02-13T04:21:08.731Z,100.00
2023-02-13T04:23:37.173Z,100.00
2023-02-13T04:26:08.971Z,100.00
2023-02-13T04:28:42.815Z,100.00
2023-02-13T04:31:13.120Z,100.00
2023-02-13T04:33:41.347Z,100.00
2023-02-13T04:36:08.873Z,100.00
2023-02-13T04:38:37.860Z,100.00
2023-02-13T04:41:05.926Z,100.00
2023-02-13T04:43:36.362Z,100.00
2023-02-13T04:46:04.344Z,100.00
2023-02-13T04:48:32.908Z,100.00
2023-02-13T04:51:00.947Z,100.00
2023-02-13T04:53:31.595Z,100.00
2023-02-13T04:55:59.438Z,100.00
2023-02-13T04:58:30.141Z,100.00
2023-02-13T05:01:00.183Z,100.00
2023-02-13T05:03:30.139Z,100.00
2023-02-13T05:06:01.489Z,100.00
2023-02-13T05:08:29.545Z,100.00
2023-02-13T05:11:00.613Z,100.00
2023-02-13T05:13:33.448Z,100.00
2023-02-13T05:16:01.996Z,100.00
2023-02-13T05:18:31.826Z,100.00
2023-02-13T05:21:19.035Z,100.00
2023-02-13T05:23:51.977Z,100.00
2023-02-13T05:26:32.666Z,100.00
2023-02-13T05:29:20.187Z,100.00
2023-02-13T05:31:49.937Z,100.00
2023-02-13T05:34:17.783Z,100.00
2023-02-13T05:37:02.061Z,100.00
2023-02-13T05:39:32.048Z,100.00
2023-02-13T05:42:00.756Z,100.00
2023-02-13T05:44:35.439Z,100.00
2023-02-13T05:47:03.046Z,100.00
2023-02-13T05:49:31.548Z,100.00
2023-02-13T05:52:04.719Z,100.00
2023-02-13T05:54:42.617Z,100.00
2023-02-13T05:57:11.749Z,100.00
2023-02-13T05:59:41.776Z,100.00
2023-02-13T06:02:09.712Z,100.00
2023-02-13T06:04:37.598Z,100.00
2023-02-13T06:07:05.567Z,100.00
2023-02-13T06:09:33.106Z,100.00
2023-02-13T06:12:02.372Z,100.00
2023-02-13T06:14:36.139Z,100.00
2023-02-13T06:17:04.252Z,100.00
2023-02-13T06:19:31.940Z,100.00
2023-02-13T06:22:05.483Z,100.00
2023-02-13T06:24:34.094Z,100.00
2023-02-13T06:27:06.234Z,100.00
2023-02-13T06:29:38.271Z,100.00
2023-02-13T06:32:06.800Z,100.00
2023-02-13T06:34:45.038Z,100.00
2023-02-13T06:37:12.733Z,100.00
2023-02-13T06:39:40.361Z,100.00
2023-02-13T06:42:09.569Z,100.00
2023-02-13T06:44:37.665Z,100.00
2023-02-13T06:47:06.774Z,100.00
2023-02-13T06:50:00.488Z,100.00
2023-02-13T06:52:33.363Z,100.00
2023-02-13T06:55:01.961Z,100.00
2023-02-13T06:57:35.691Z,100.00
2023-02-13T07:00:07.968Z,100.00
2023-02-13T07:02:42.082Z,100.00
2023-02-13T07:05:24.707Z,100.00
2023-02-13T07:08:02.164Z,100.00
2023-02-13T07:10:40.795Z,100.00
2023-02-13T07:13:13.038Z,100.00
2023-02-13T07:15:49.055Z,100.00
2023-02-13T07:18:29.493Z,100.00
2023-02-13T07:21:01.861Z,100.00
2023-02-13T07:23:30.621Z,100.00
2023-02-13T07:26:03.156Z,100.00
2023-02-13T07:28:34.923Z,100.00
2023-02-13T07:31:11.246Z,100.00
2023-02-13T07:33:43.018Z,100.00
2023-02-13T07:36:12.010Z,100.00
2023-02-13T07:38:52.143Z,100.00
2023-02-13T07:41:20.648Z,100.00
2023-02-13T07:44:01.798Z,100.00
2023-02-13T07:46:30.766Z,100.00
2023-02-13T07:49:02.401Z,100.00
2023-02-13T07:51:37.664Z,100.00
2023-02-13T07:54:06.665Z,100.00
2023-02-13T07:56:35.334Z,100.00
2023-02-13T07:59:06.251Z,100.00
2023-02-13T08:01:34.741Z,100.00
2023-02-13T08:04:09.729Z,100.00
2023-02-13T08:06:47.834Z,100.00
2023-02-13T08:09:40.971Z,100.00
2023-02-13T08:12:31.249Z,100.00
2023-02-13T08:15:05.809Z,100.00
2023-02-13T08:17:37.299Z,100.00
2023-02-13T08:20:13.392Z,97.27
2023-02-13T08:22:43.984Z,81.27
2023-02-13T08:25:20.536Z,64.61
2023-02-13T08:27:49.632Z,62.42
2023-02-13T08:30:18.735Z,58.35
2023-02-13T08:32:54.622Z,55.48
2023-02-13T08:35:37.131Z,53.24
2023-02-13T08:38:09.317Z,52.23
2023-02-13T08:40:39.745Z,52.09
2023-02-13T08:43:08.776Z,50.40
2023-02-13T08:45:47.076Z,49.48
2023-02-13T08:48:22.733Z,50.25
2023-02-13T08:50:51.861Z,50.17
2023-02-13T08:53:22.554Z,51.86
2023-02-13T08:56:00.085Z,56.89
2023-02-13T08:58:39.865Z,59.13
2023-02-13T09:01:09.804Z,64.29
2023-02-13T09:03:38.255Z,64.91
2023-02-13T09:06:20.860Z,67.18
2023-02-13T09:09:01.197Z,86.91
2023-02-13T09:11:47.040Z,99.98
2023-02-13T09:14:34.416Z,100.00
2023-02-13T09:17:32.735Z,100.00
2023-02-13T09:20:07.728Z,100.00
2023-02-13T09:22:43.088Z,100.00
2023-02-13T09:25:20.795Z,100.00
2023-02-13T09:27:58.966Z,100.00
2023-02-13T09:30:42.413Z,100.00
2023-02-13T09:33:38.094Z,100.00
2023-02-13T09:36:11.312Z,100.00
2023-02-13T09:38:47.971Z,100.00
2023-02-13T09:41:44.564Z,100.00
2023-02-13T09:44:36.370Z,100.00
2023-02-13T09:47:23.725Z,100.00
2023-02-13T09:50:18.428Z,100.00
2023-02-13T09:52:48.741Z,100.00
2023-02-13T09:55:27.709Z,100.00
2023-02-13T09:58:36.013Z,100.00
2023-02-13T10:01:07.086Z,100.00
2023-02-13T10:04:08.564Z,100.00
2023-02-13T10:07:00.588Z,100.00
2023-02-13T10:12:43.837Z,100.00
2023-02-13T10:15:37.100Z,100.00
2023-02-13T10:18:28.383Z,100.00
2023-02-13T10:21:12.678Z,100.00
2023-02-13T10:27:03.138Z,100.00
2023-02-13T10:33:26.910Z,100.00
2023-02-13T10:36:11.072Z,100.00
2023-02-13T10:39:33.314Z,100.00
2023-02-13T10:42:24.418Z,100.00
2023-02-13T10:45:15.901Z,100.00
2023-02-13T10:58:54.632Z,100.00
2023-02-13T11:01:58.033Z,100.00
2023-02-13T11:09:01.325Z,100.00
2023-02-13T11:11:51.942Z,100.00
2023-02-13T11:15:00.467Z,100.00
2023-02-13T11:17:34.950Z,100.00
2023-02-13T11:20:32.669Z,100.00
2023-02-13T11:27:14.154Z,100.00
2023-02-13T11:30:16.013Z,100.00
2023-02-13T11:33:02.672Z,100.00
2023-02-13T11:38:59.477Z,100.00
2023-02-13T11:41:49.854Z,100.00
2023-02-13T11:44:36.656Z,100.00
2023-02-13T11:47:17.871Z,100.00
2023-02-13T11:49:53.133Z,100.00
2023-02-13T11:52:37.245Z,100.00
2023-02-13T11:55:35.987Z,100.00
2023-02-13T11:58:16.038Z,100.00
2023-02-13T12:01:00.253Z,100.00
2023-02-13T12:03:41.849Z,100.00
2023-02-13T12:06:21.804Z,100.00
2023-02-13T12:09:09.518Z,100.00
2023-02-13T12:11:55.431Z,100.00
2023-02-13T12:14:45.818Z,100.00
2023-02-13T12:17:36.461Z,100.00
2023-02-13T12:20:15.928Z,100.00
2023-02-13T12:23:18.434Z,100.00
2023-02-13T12:26:11.724Z,100.00
2023-02-13T12:29:36.937Z,100.00
2023-02-13T12:32:36.220Z,100.00
2023-02-13T12:35:32.795Z,100.00
2023-02-13T12:38:17.938Z,100.00
2023-02-13T12:41:16.980Z,100.00
2023-02-13T12:44:06.929Z,100.00
2023-02-13T12:47:03.044Z,100.00
2023-02-13T12:49:41.050Z,100.00
2023-02-13T12:52:35.194Z,100.00
2023-02-13T12:55:35.132Z,100.00
2023-02-13T12:58:35.598Z,100.00
2023-02-13T13:01:48.860Z,100.00
2023-02-13T13:04:41.617Z,100.00
2023-02-13T13:07:34.264Z,100.00
2023-02-13T13:10:26.927Z,100.00
2023-02-13T13:13:23.299Z,100.00
2023-02-13T13:16:19.293Z,100.00
2023-02-13T13:19:01.625Z,100.00
2023-02-13T13:21:45.766Z,100.00
2023-02-13T13:25:01.469Z,100.00
2023-02-13T13:27:50.540Z,100.00
2023-02-13T13:30:23.391Z,100.00
2023-02-13T13:33:03.940Z,100.00
2023-02-13T13:35:43.088Z,100.00
2023-02-13T13:38:43.458Z,100.00
2023-02-13T13:41:46.557Z,100.00
2023-02-13T13:44:36.831Z,100.00
2023-02-13T13:47:20.861Z,100.00
2023-02-13T13:50:01.341Z,100.00
2023-02-13T13:52:44.587Z,100.00
2023-02-13T13:56:03.652Z,100.00
2023-02-13T13:58:48.921Z,100.00
2023-02-13T14:01:27.369Z,100.00
2023-02-13T14:04:36.914Z,100.00
2023-02-13T14:07:05.643Z,100.00
2023-02-13T14:09:51.418Z,100.00
2023-02-13T14:12:26.271Z,100.00
2023-02-13T14:14:55.709Z,100.00
2023-02-13T14:17:46.903Z,100.00
2023-02-13T14:20:38.282Z,100.00
2023-02-13T14:23:18.808Z,100.00
2023-02-13T14:25:49.023Z,100.00
2023-02-13T14:28:34.868Z,100.00
2023-02-13T14:31:28.498Z,100.00
2023-02-13T14:34:08.893Z,100.00
2023-02-13T14:36:50.534Z,100.00
2023-02-13T14:39:35.041Z,100.00
2023-02-13T14:42:11.564Z,100.00
2023-02-13T14:44:54.332Z,100.00
2023-02-13T14:47:49.337Z,100.00
2023-02-13T14:50:58.041Z,100.00
2023-02-13T14:53:59.712Z,100.00
2023-02-13T14:56:42.303Z,100.00
2023-02-13T14:59:37.065Z,100.00
2023-02-13T15:02:20.058Z,100.00
2023-02-13T15:04:52.160Z,100.00
2023-02-13T15:07:45.810Z,100.00
2023-02-13T15:10:30.931Z,100.00
2023-02-13T15:13:35.624Z,100.00
2023-02-13T15:16:14.159Z,100.00
2023-02-13T15:19:00.045Z,100.00
2023-02-13T15:21:37.612Z,100.00
2023-02-13T15:24:24.279Z,100.00
2023-02-13T15:27:26.199Z,100.00
2023-02-13T15:30:24.906Z,100.00
2023-02-13T15:33:27.983Z,100.00
2023-02-13T15:36:12.229Z,100.00
2023-02-13T15:38:47.440Z,100.00
2023-02-13T15:41:38.844Z,100.00
2023-02-13T15:44:26.220Z,100.00
2023-02-13T15:47:08.639Z,100.00
2023-02-13T15:49:46.261Z,100.00
2023-02-13T15:52:43.040Z,100.00
2023-02-13T15:55:39.373Z,100.00
2023-02-13T15:58:16.558Z,100.00
2023-02-13T16:00:50.203Z,100.00
2023-02-13T16:03:40.654Z,100.00
2023-02-13T16:06:15.422Z,100.00
2023-02-13T16:09:00.434Z,100.00
2023-02-13T16:11:48.332Z,100.00
2023-02-13T16:14:34.462Z,100.00
2023-02-13T16:17:23.450Z,100.00
2023-02-13T16:20:08.631Z,100.00
2023-02-13T16:25:49.743Z,100.00
2023-02-13T16:28:26.644Z,100.00
2023-02-13T16:31:10.134Z,100.00
2023-02-13T16:33:49.022Z,100.00
2023-02-13T16:36:32.228Z,100.00
2023-02-13T16:39:19.558Z,100.00
2023-02-13T16:41:54.902Z,100.00
2023-02-13T16:47:28.120Z,100.00
2023-02-13T16:49:59.921Z,100.00
2023-02-13T16:52:29.326Z,100.00
2023-02-13T16:55:04.608Z,100.00
2023-02-13T16:58:19.372Z,100.00
2023-02-13T17:00:54.988Z,100.00
2023-02-13T17:03:33.773Z,100.00
2023-02-13T17:06:10.424Z,100.00
2023-02-13T17:08:45.144Z,100.00
2023-02-13T17:11:28.684Z,100.00
2023-02-13T17:14:13.092Z,100.00
2023-02-13T17:32:53.483Z,100.00
2023-02-13T17:38:32.328Z,100.00
2023-02-13T17:41:14.017Z,100.00
2023-02-13T18:18:38.582Z,100.00
2023-02-13T18:21:12.602Z,100.00
2023-02-13T18:23:42.620Z,100.00
2023-02-13T18:33:12.563Z,100.00
2023-02-13T18:46:13.645Z,100.00
2023-02-13T18:55:36.017Z,100.00
2023-02-13T19:08:07.616Z,100.00
2023-02-13T19:11:14.708Z,100.00
2023-02-13T19:14:03.218Z,100.00
2023-02-13T19:16:52.518Z,100.00
2023-02-13T19:20:01.998Z,100.00
2023-02-13T19:22:49.015Z,100.00
2023-02-13T19:25:48.459Z,100.00
2023-02-13T19:28:20.304Z,100.00
2023-02-13T19:30:53.905Z,100.00
2023-02-13T19:33:23.822Z,100.00
2023-02-13T19:36:09.128Z,100.00
2023-02-13T19:38:51.047Z,100.00
2023-02-13T19:44:46.551Z,100.00
2023-02-13T19:47:24.140Z,100.00
2023-02-13T19:50:07.169Z,100.00
2023-02-13T19:53:00.999Z,100.00
2023-02-13T19:55:35.158Z,100.00
2023-02-13T19:58:11.867Z,100.00
2023-02-13T20:00:58.470Z,100.00
2023-02-13T20:03:39.766Z,100.00
2023-02-13T20:06:22.611Z,100.00
2023-02-13T20:09:00.329Z,100.00
2023-02-13T20:11:46.254Z,100.00
2023-02-13T20:14:16.114Z,100.00
2023-02-13T20:17:09.254Z,100.00
2023-02-13T20:19:46.028Z,100.00
2023-02-13T20:22:17.304Z,100.00
2023-02-13T20:25:07.152Z,100.00
2023-02-13T20:28:15.986Z,100.00
2023-02-13T20:30:56.454Z,100.00
2023-02-13T20:33:32.076Z,100.00
2023-02-13T20:36:08.733Z,100.00
2023-02-13T20:38:58.960Z,100.00
2023-02-13T20:41:32.606Z,100.00
2023-02-13T20:44:11.691Z,100.00
2023-02-13T20:46:56.904Z,100.00
2023-02-13T20:49:30.116Z,100.00
2023-02-13T20:52:55.990Z,100.00
2023-02-13T20:55:50.039Z,100.00
2023-02-13T20:58:24.415Z,100.00
2023-02-13T21:01:03.441Z,100.00
2023-02-13T21:03:32.457Z,100.00
2023-02-13T21:06:06.579Z,100.00
2023-02-13T21:08:53.097Z,100.00
2023-02-13T21:11:27.008Z,100.00
2023-02-13T21:14:21.215Z,100.00
2023-02-13T21:16:58.640Z,100.00
2023-02-13T21:19:30.154Z,100.00
2023-02-13T21:22:16.751Z,100.00
2023-02-13T21:25:03.398Z,100.00
2023-02-13T21:27:45.481Z,100.00
2023-02-13T21:30:15.606Z,100.00
2023-02-13T21:33:01.172Z,100.00
2023-02-13T21:35:51.548Z,100.00
2023-02-13T21:38:40.626Z,100.00
2023-02-13T21:41:43.086Z,100.00
2023-02-13T21:44:34.806Z,100.00
2023-02-13T21:47:34.365Z,100.00
2023-02-13T21:50:16.437Z,100.00
2023-02-13T21:53:06.987Z,100.00
2023-02-13T21:55:37.157Z,100.00
2023-02-13T21:58:09.382Z,100.00
2023-02-13T22:00:56.989Z,100.00
2023-02-13T22:03:39.910Z,100.00
2023-02-13T22:06:43.878Z,100.00
2023-02-13T22:09:23.401Z,100.00
2023-02-13T22:12:27.913Z,100.00
2023-02-13T22:15:13.145Z,100.00
2023-02-13T22:17:44.662Z,100.00
2023-02-13T22:20:20.032Z,100.00
2023-02-13T22:22:55.821Z,100.00
2023-02-13T22:25:36.570Z,100.00
2023-02-13T22:28:11.777Z,100.00
2023-02-13T22:30:45.938Z,100.00
2023-02-13T22:33:34.573Z,100.00
2023-02-13T22:36:10.744Z,100.00
2023-02-13T22:38:49.792Z,100.00
2023-02-13T22:41:48.616Z,100.00
2023-02-13T22:44:19.785Z,100.00
2023-02-13T22:46:55.044Z,100.00
2023-02-13T22:49:44.867Z,100.00
2023-02-13T22:52:18.831Z,100.00
2023-02-13T22:55:00.464Z,100.00
2023-02-13T22:57:32.231Z,100.00
2023-02-13T23:00:18.937Z,100.00
2023-02-13T23:02:49.217Z,100.00
2023-02-13T23:05:29.282Z,100.00
2023-02-13T23:07:56.901Z,100.00
2023-02-13T23:10:46.817Z,100.00
2023-02-13T23:13:17.901Z,100.00
2023-02-13T23:16:04.906Z,100.00
2023-02-13T23:18:58.489Z,100.00
2023-02-13T23:21:44.581Z,100.00
2023-02-13T23:24:36.657Z,100.00
2023-02-13T23:27:20.924Z,100.00
2023-02-13T23:30:13.938Z,100.00
2023-02-13T23:32:49.370Z,100.00
2023-02-13T23:35:26.815Z,100.00
2023-02-13T23:38:09.049Z,100.00
2023-02-13T23:40:47.585Z,100.00
2023-02-13T23:43:21.485Z,100.00
2023-02-13T23:46:20.261Z,100.00
2023-02-13T23:48:59.569Z,100.00
2023-02-13T23:51:35.676Z,100.00
2023-02-13T23:54:22.921Z,100.00
2023-02-13T23:56:56.671Z,100.00
2023-02-13T23:59:30.413Z,100.00
